sensor_id;sensor_type;location;lat;lon;timestamp;P1;durP1;ratioP1;P2;durP2;ratioP2
51943;SDS011;37969;53.132;6.370;2023-02-05T00:02:17;20.35;;;11.63;;
51943;SDS011;37969;53.132;6.370;2023-02-05T00:04:43;23.55;;;12.13;;
51943;SDS011;37969;53.132;6.370;2023-02-05T00:07:09;20.13;;;11.48;;
51943;SDS011;37969;53.132;6.370;2023-02-05T00:09:35;18.80;;;11.90;;
51943;SDS011;37969;53.132;6.370;2023-02-05T00:12:04;22.83;;;11.95;;
51943;SDS011;37969;53.132;6.370;2023-02-05T00:14:31;25.40;;;12.77;;
51943;SDS011;37969;53.132;6.370;2023-02-05T00:16:57;26.52;;;12.95;;
51943;SDS011;37969;53.132;6.370;2023-02-05T00:19:23;23.33;;;12.40;;
51943;SDS011;37969;53.132;6.370;2023-02-05T00:21:49;25.40;;;12.57;;
51943;SDS011;37969;53.132;6.370;2023-02-05T00:24:16;27.50;;;12.18;;
51943;SDS011;37969;53.132;6.370;2023-02-05T00:26:42;25.95;;;13.52;;
51943;SDS011;37969;53.132;6.370;2023-02-05T00:29:08;25.70;;;13.18;;
51943;SDS011;37969;53.132;6.370;2023-02-05T00:31:34;28.10;;;13.25;;
51943;SDS011;37969;53.132;6.370;2023-02-05T00:34:00;29.65;;;13.70;;
51943;SDS011;37969;53.132;6.370;2023-02-05T00:36:26;29.25;;;14.00;;
51943;SDS011;37969;53.132;6.370;2023-02-05T00:38:53;27.50;;;13.48;;
51943;SDS011;37969;53.132;6.370;2023-02-05T00:41:19;28.38;;;12.30;;
51943;SDS011;37969;53.132;6.370;2023-02-05T00:43:45;31.58;;;12.82;;
51943;SDS011;37969;53.132;6.370;2023-02-05T00:46:11;30.77;;;13.63;;
51943;SDS011;37969;53.132;6.370;2023-02-05T00:48:38;30.13;;;13.32;;
51943;SDS011;37969;53.132;6.370;2023-02-05T00:51:05;27.35;;;14.35;;
51943;SDS011;37969;53.132;6.370;2023-02-05T00:53:31;29.45;;;13.60;;
51943;SDS011;37969;53.132;6.370;2023-02-05T00:55:57;34.40;;;15.05;;
51943;SDS011;37969;53.132;6.370;2023-02-05T00:58:23;34.05;;;14.63;;
51943;SDS011;37969;53.132;6.370;2023-02-05T01:00:49;35.30;;;14.75;;
51943;SDS011;37969;53.132;6.370;2023-02-05T01:03:16;28.92;;;13.93;;
51943;SDS011;37969;53.132;6.370;2023-02-05T01:05:42;33.10;;;15.63;;
51943;SDS011;37969;53.132;6.370;2023-02-05T01:08:09;27.77;;;14.00;;
51943;SDS011;37969;53.132;6.370;2023-02-05T01:10:36;29.92;;;15.23;;
51943;SDS011;37969;53.132;6.370;2023-02-05T01:13:02;32.00;;;15.57;;
51943;SDS011;37969;53.132;6.370;2023-02-05T01:15:29;32.25;;;16.08;;
51943;SDS011;37969;53.132;6.370;2023-02-05T01:17:55;33.75;;;16.70;;
51943;SDS011;37969;53.132;6.370;2023-02-05T01:20:24;32.03;;;16.38;;
51943;SDS011;37969;53.132;6.370;2023-02-05T01:22:50;30.50;;;16.23;;
51943;SDS011;37969;53.132;6.370;2023-02-05T01:25:16;36.33;;;17.58;;
51943;SDS011;37969;53.132;6.370;2023-02-05T01:27:42;39.83;;;18.15;;
51943;SDS011;37969;53.132;6.370;2023-02-05T01:30:09;40.47;;;19.05;;
51943;SDS011;37969;53.132;6.370;2023-02-05T01:32:36;40.33;;;19.00;;
51943;SDS011;37969;53.132;6.370;2023-02-05T01:35:02;33.03;;;18.08;;
51943;SDS011;37969;53.132;6.370;2023-02-05T01:37:28;36.72;;;17.73;;
51943;SDS011;37969;53.132;6.370;2023-02-05T01:39:54;39.15;;;18.55;;
51943;SDS011;37969;53.132;6.370;2023-02-05T01:42:22;44.80;;;19.35;;
51943;SDS011;37969;53.132;6.370;2023-02-05T01:47:34;39.88;;;19.30;;
51943;SDS011;37969;53.132;6.370;2023-02-05T01:50:00;43.38;;;18.70;;
51943;SDS011;37969;53.132;6.370;2023-02-05T01:52:26;44.15;;;20.58;;
51943;SDS011;37969;53.132;6.370;2023-02-05T01:54:52;49.33;;;20.10;;
51943;SDS011;37969;53.132;6.370;2023-02-05T01:57:19;48.13;;;21.65;;
51943;SDS011;37969;53.132;6.370;2023-02-05T01:59:47;51.05;;;22.58;;
51943;SDS011;37969;53.132;6.370;2023-02-05T02:02:14;47.63;;;20.83;;
51943;SDS011;37969;53.132;6.370;2023-02-05T02:04:42;44.17;;;20.95;;
51943;SDS011;37969;53.132;6.370;2023-02-05T02:07:10;51.53;;;21.67;;
51943;SDS011;37969;53.132;6.370;2023-02-05T02:09:37;50.60;;;20.27;;
51943;SDS011;37969;53.132;6.370;2023-02-05T02:12:04;58.45;;;22.48;;
51943;SDS011;37969;53.132;6.370;2023-02-05T02:14:31;56.67;;;22.83;;
51943;SDS011;37969;53.132;6.370;2023-02-05T02:16:57;54.63;;;22.17;;
51943;SDS011;37969;53.132;6.370;2023-02-05T02:19:28;53.20;;;21.77;;
51943;SDS011;37969;53.132;6.370;2023-02-05T02:29:38;62.92;;;23.45;;
51943;SDS011;37969;53.132;6.370;2023-02-05T02:32:11;71.55;;;24.92;;
51943;SDS011;37969;53.132;6.370;2023-02-05T02:34:40;65.07;;;22.75;;
51943;SDS011;37969;53.132;6.370;2023-02-05T02:37:11;63.15;;;23.42;;
51943;SDS011;37969;53.132;6.370;2023-02-05T02:42:07;62.63;;;23.55;;
51943;SDS011;37969;53.132;6.370;2023-02-05T02:44:41;67.03;;;26.50;;
51943;SDS011;37969;53.132;6.370;2023-02-05T02:47:11;65.18;;;24.23;;
51943;SDS011;37969;53.132;6.370;2023-02-05T02:49:40;65.20;;;25.35;;
51943;SDS011;37969;53.132;6.370;2023-02-05T02:52:08;65.33;;;25.97;;
51943;SDS011;37969;53.132;6.370;2023-02-05T02:54:36;68.95;;;25.15;;
51943;SDS011;37969;53.132;6.370;2023-02-05T02:57:05;59.22;;;25.67;;
51943;SDS011;37969;53.132;6.370;2023-02-05T02:59:32;70.95;;;26.40;;
51943;SDS011;37969;53.132;6.370;2023-02-05T03:02:00;81.13;;;26.67;;
51943;SDS011;37969;53.132;6.370;2023-02-05T03:04:32;79.22;;;27.20;;
51943;SDS011;37969;53.132;6.370;2023-02-05T03:07:03;73.55;;;27.17;;
51943;SDS011;37969;53.132;6.370;2023-02-05T03:09:33;57.75;;;25.80;;
51943;SDS011;37969;53.132;6.370;2023-02-05T03:12:01;79.57;;;28.98;;
51943;SDS011;37969;53.132;6.370;2023-02-05T03:14:28;96.03;;;32.47;;
51943;SDS011;37969;53.132;6.370;2023-02-05T03:16:55;94.93;;;29.13;;
51943;SDS011;37969;53.132;6.370;2023-02-05T03:19:21;93.65;;;31.58;;
51943;SDS011;37969;53.132;6.370;2023-02-05T03:21:49;93.65;;;31.17;;
51943;SDS011;37969;53.132;6.370;2023-02-05T03:24:16;108.55;;;34.60;;
51943;SDS011;37969;53.132;6.370;2023-02-05T03:26:42;81.35;;;28.35;;
51943;SDS011;37969;53.132;6.370;2023-02-05T03:29:09;87.15;;;29.83;;
51943;SDS011;37969;53.132;6.370;2023-02-05T03:31:43;99.25;;;33.15;;
51943;SDS011;37969;53.132;6.370;2023-02-05T03:39:33;106.85;;;34.42;;
51943;SDS011;37969;53.132;6.370;2023-02-05T03:42:12;98.78;;;34.15;;
51943;SDS011;37969;53.132;6.370;2023-02-05T03:45:05;118.00;;;34.63;;
51943;SDS011;37969;53.132;6.370;2023-02-05T03:47:37;118.20;;;34.55;;
51943;SDS011;37969;53.132;6.370;2023-02-05T03:50:16;123.28;;;34.85;;
51943;SDS011;37969;53.132;6.370;2023-02-05T03:52:49;122.18;;;35.35;;
51943;SDS011;37969;53.132;6.370;2023-02-05T03:57:43;132.63;;;38.08;;
51943;SDS011;37969;53.132;6.370;2023-02-05T04:00:11;112.68;;;37.22;;
51943;SDS011;37969;53.132;6.370;2023-02-05T04:02:37;130.13;;;37.60;;
51943;SDS011;37969;53.132;6.370;2023-02-05T04:05:04;123.47;;;35.70;;
51943;SDS011;37969;53.132;6.370;2023-02-05T04:07:30;101.10;;;32.65;;
51943;SDS011;37969;53.132;6.370;2023-02-05T04:09:56;107.03;;;32.80;;
51943;SDS011;37969;53.132;6.370;2023-02-05T04:12:22;120.22;;;36.72;;
51943;SDS011;37969;53.132;6.370;2023-02-05T04:14:48;128.70;;;54.13;;
51943;SDS011;37969;53.132;6.370;2023-02-05T04:17:14;147.13;;;64.68;;
51943;SDS011;37969;53.132;6.370;2023-02-05T04:19:41;105.93;;;34.88;;
51943;SDS011;37969;53.132;6.370;2023-02-05T04:22:07;132.15;;;59.38;;
51943;SDS011;37969;53.132;6.370;2023-02-05T04:24:33;112.75;;;38.20;;
51943;SDS011;37969;53.132;6.370;2023-02-05T04:26:59;114.53;;;39.38;;
51943;SDS011;37969;53.132;6.370;2023-02-05T04:29:25;86.15;;;30.30;;
51943;SDS011;37969;53.132;6.370;2023-02-05T04:31:51;93.50;;;33.05;;
51943;SDS011;37969;53.132;6.370;2023-02-05T04:34:17;84.57;;;30.65;;
51943;SDS011;37969;53.132;6.370;2023-02-05T04:36:44;85.78;;;30.63;;
51943;SDS011;37969;53.132;6.370;2023-02-05T04:39:10;80.35;;;29.77;;
51943;SDS011;37969;53.132;6.370;2023-02-05T04:41:36;77.55;;;29.17;;
51943;SDS011;37969;53.132;6.370;2023-02-05T04:44:02;72.80;;;25.90;;
51943;SDS011;37969;53.132;6.370;2023-02-05T04:46:30;78.05;;;27.63;;
51943;SDS011;37969;53.132;6.370;2023-02-05T04:48:57;66.28;;;25.10;;
51943;SDS011;37969;53.132;6.370;2023-02-05T04:51:23;61.67;;;23.27;;
51943;SDS011;37969;53.132;6.370;2023-02-05T04:53:49;60.05;;;21.63;;
51943;SDS011;37969;53.132;6.370;2023-02-05T04:56:16;49.55;;;20.05;;
51943;SDS011;37969;53.132;6.370;2023-02-05T04:58:42;56.72;;;20.83;;
51943;SDS011;37969;53.132;6.370;2023-02-05T05:01:10;57.35;;;21.63;;
51943;SDS011;37969;53.132;6.370;2023-02-05T05:03:37;49.25;;;19.25;;
51943;SDS011;37969;53.132;6.370;2023-02-05T05:06:03;43.25;;;15.73;;
51943;SDS011;37969;53.132;6.370;2023-02-05T05:08:29;52.63;;;16.63;;
51943;SDS011;37969;53.132;6.370;2023-02-05T05:10:55;37.05;;;15.15;;
51943;SDS011;37969;53.132;6.370;2023-02-05T05:13:21;28.02;;;12.13;;
51943;SDS011;37969;53.132;6.370;2023-02-05T05:15:54;29.40;;;10.98;;
51943;SDS011;37969;53.132;6.370;2023-02-05T05:18:21;17.13;;;9.35;;
51943;SDS011;37969;53.132;6.370;2023-02-05T05:20:47;17.40;;;5.63;;
51943;SDS011;37969;53.132;6.370;2023-02-05T05:23:13;14.52;;;3.53;;
51943;SDS011;37969;53.132;6.370;2023-02-05T05:25:40;13.38;;;2.97;;
51943;SDS011;37969;53.132;6.370;2023-02-05T05:28:06;13.65;;;3.67;;
51943;SDS011;37969;53.132;6.370;2023-02-05T05:30:32;18.38;;;3.38;;
51943;SDS011;37969;53.132;6.370;2023-02-05T05:32:58;23.10;;;3.35;;
51943;SDS011;37969;53.132;6.370;2023-02-05T05:35:24;31.45;;;3.78;;
51943;SDS011;37969;53.132;6.370;2023-02-05T05:37:51;28.42;;;3.30;;
51943;SDS011;37969;53.132;6.370;2023-02-05T05:40:17;29.20;;;3.10;;
51943;SDS011;37969;53.132;6.370;2023-02-05T05:43:01;28.92;;;3.63;;
51943;SDS011;37969;53.132;6.370;2023-02-05T05:45:46;19.95;;;3.33;;
51943;SDS011;37969;53.132;6.370;2023-02-05T05:48:13;22.83;;;2.58;;
51943;SDS011;37969;53.132;6.370;2023-02-05T05:50:39;28.70;;;3.13;;
51943;SDS011;37969;53.132;6.370;2023-02-05T05:53:05;23.70;;;2.92;;
51943;SDS011;37969;53.132;6.370;2023-02-05T05:55:31;27.45;;;2.97;;
51943;SDS011;37969;53.132;6.370;2023-02-05T05:57:57;15.13;;;1.83;;
51943;SDS011;37969;53.132;6.370;2023-02-05T06:00:23;20.98;;;2.08;;
51943;SDS011;37969;53.132;6.370;2023-02-05T06:02:49;25.65;;;3.17;;
51943;SDS011;37969;53.132;6.370;2023-02-05T06:05:16;18.70;;;1.98;;
51943;SDS011;37969;53.132;6.370;2023-02-05T06:07:42;16.00;;;2.08;;
51943;SDS011;37969;53.132;6.370;2023-02-05T06:10:08;21.85;;;2.30;;
51943;SDS011;37969;53.132;6.370;2023-02-05T06:12:34;23.90;;;2.72;;
51943;SDS011;37969;53.132;6.370;2023-02-05T06:15:00;30.48;;;2.95;;
51943;SDS011;37969;53.132;6.370;2023-02-05T06:17:26;29.02;;;3.17;;
51943;SDS011;37969;53.132;6.370;2023-02-05T06:19:53;22.52;;;2.40;;
51943;SDS011;37969;53.132;6.370;2023-02-05T06:22:19;24.70;;;2.70;;
51943;SDS011;37969;53.132;6.370;2023-02-05T06:24:45;23.33;;;2.80;;
51943;SDS011;37969;53.132;6.370;2023-02-05T06:27:11;23.45;;;2.83;;
51943;SDS011;37969;53.132;6.370;2023-02-05T06:29:37;23.83;;;2.63;;
51943;SDS011;37969;53.132;6.370;2023-02-05T06:32:04;27.17;;;3.42;;
51943;SDS011;37969;53.132;6.370;2023-02-05T06:34:30;25.40;;;3.33;;
51943;SDS011;37969;53.132;6.370;2023-02-05T06:36:56;30.17;;;3.53;;
51943;SDS011;37969;53.132;6.370;2023-02-05T06:39:22;22.85;;;2.83;;
51943;SDS011;37969;53.132;6.370;2023-02-05T06:41:48;29.10;;;2.70;;
51943;SDS011;37969;53.132;6.370;2023-02-05T06:44:14;23.15;;;2.92;;
51943;SDS011;37969;53.132;6.370;2023-02-05T06:46:41;25.00;;;3.17;;
51943;SDS011;37969;53.132;6.370;2023-02-05T06:49:07;25.50;;;2.55;;
51943;SDS011;37969;53.132;6.370;2023-02-05T06:51:33;26.13;;;3.33;;
51943;SDS011;37969;53.132;6.370;2023-02-05T06:53:59;22.13;;;2.60;;
51943;SDS011;37969;53.132;6.370;2023-02-05T06:56:25;21.98;;;3.65;;
51943;SDS011;37969;53.132;6.370;2023-02-05T06:58:51;23.15;;;3.05;;
51943;SDS011;37969;53.132;6.370;2023-02-05T07:01:18;22.10;;;2.50;;
51943;SDS011;37969;53.132;6.370;2023-02-05T07:03:44;22.27;;;2.80;;
51943;SDS011;37969;53.132;6.370;2023-02-05T07:06:12;19.42;;;2.17;;
51943;SDS011;37969;53.132;6.370;2023-02-05T07:08:38;18.98;;;3.10;;
51943;SDS011;37969;53.132;6.370;2023-02-05T07:11:05;18.95;;;2.10;;
51943;SDS011;37969;53.132;6.370;2023-02-05T07:13:31;15.43;;;2.63;;
51943;SDS011;37969;53.132;6.370;2023-02-05T07:16:00;23.67;;;3.00;;
51943;SDS011;37969;53.132;6.370;2023-02-05T07:18:27;19.65;;;2.30;;
51943;SDS011;37969;53.132;6.370;2023-02-05T07:20:53;13.60;;;1.58;;
51943;SDS011;37969;53.132;6.370;2023-02-05T07:23:19;17.77;;;2.70;;
51943;SDS011;37969;53.132;6.370;2023-02-05T07:25:45;18.83;;;3.00;;
51943;SDS011;37969;53.132;6.370;2023-02-05T07:28:11;16.52;;;2.97;;
51943;SDS011;37969;53.132;6.370;2023-02-05T07:30:37;19.15;;;3.65;;
51943;SDS011;37969;53.132;6.370;2023-02-05T07:33:03;22.02;;;2.97;;
51943;SDS011;37969;53.132;6.370;2023-02-05T07:35:30;18.80;;;3.33;;
51943;SDS011;37969;53.132;6.370;2023-02-05T07:37:56;27.90;;;3.28;;
51943;SDS011;37969;53.132;6.370;2023-02-05T07:40:23;26.17;;;3.08;;
51943;SDS011;37969;53.132;6.370;2023-02-05T07:42:49;26.13;;;3.38;;
51943;SDS011;37969;53.132;6.370;2023-02-05T07:45:15;22.75;;;2.97;;
51943;SDS011;37969;53.132;6.370;2023-02-05T07:47:41;22.75;;;3.45;;
51943;SDS011;37969;53.132;6.370;2023-02-05T07:50:08;30.95;;;3.80;;
51943;SDS011;37969;53.132;6.370;2023-02-05T07:52:34;30.67;;;4.13;;
51943;SDS011;37969;53.132;6.370;2023-02-05T07:55:00;33.03;;;3.72;;
51943;SDS011;37969;53.132;6.370;2023-02-05T07:57:26;29.38;;;3.53;;
51943;SDS011;37969;53.132;6.370;2023-02-05T07:59:52;31.67;;;3.88;;
51943;SDS011;37969;53.132;6.370;2023-02-05T08:02:19;31.65;;;4.35;;
51943;SDS011;37969;53.132;6.370;2023-02-05T08:04:45;22.88;;;3.60;;
51943;SDS011;37969;53.132;6.370;2023-02-05T08:07:11;28.05;;;3.47;;
51943;SDS011;37969;53.132;6.370;2023-02-05T08:09:38;30.75;;;4.00;;
51943;SDS011;37969;53.132;6.370;2023-02-05T08:12:04;34.38;;;4.40;;
51943;SDS011;37969;53.132;6.370;2023-02-05T08:14:31;40.05;;;4.85;;
51943;SDS011;37969;53.132;6.370;2023-02-05T08:16:57;35.95;;;4.05;;
51943;SDS011;37969;53.132;6.370;2023-02-05T08:19:24;31.80;;;5.20;;
51943;SDS011;37969;53.132;6.370;2023-02-05T08:21:50;36.30;;;4.45;;
51943;SDS011;37969;53.132;6.370;2023-02-05T08:24:17;34.45;;;4.32;;
51943;SDS011;37969;53.132;6.370;2023-02-05T08:26:43;37.67;;;6.10;;
51943;SDS011;37969;53.132;6.370;2023-02-05T08:29:10;42.63;;;4.90;;
51943;SDS011;37969;53.132;6.370;2023-02-05T08:31:36;34.13;;;4.88;;
51943;SDS011;37969;53.132;6.370;2023-02-05T08:34:03;32.88;;;5.22;;
51943;SDS011;37969;53.132;6.370;2023-02-05T08:36:29;31.65;;;4.50;;
51943;SDS011;37969;53.132;6.370;2023-02-05T08:38:55;29.58;;;4.45;;
51943;SDS011;37969;53.132;6.370;2023-02-05T08:41:22;33.22;;;4.60;;
51943;SDS011;37969;53.132;6.370;2023-02-05T08:43:48;33.92;;;4.22;;
51943;SDS011;37969;53.132;6.370;2023-02-05T08:46:16;35.95;;;4.82;;
51943;SDS011;37969;53.132;6.370;2023-02-05T08:48:43;34.75;;;4.28;;
51943;SDS011;37969;53.132;6.370;2023-02-05T08:51:10;39.33;;;5.00;;
51943;SDS011;37969;53.132;6.370;2023-02-05T08:53:37;36.53;;;5.35;;
51943;SDS011;37969;53.132;6.370;2023-02-05T08:56:04;40.53;;;5.63;;
51943;SDS011;37969;53.132;6.370;2023-02-05T08:58:31;32.28;;;4.72;;
51943;SDS011;37969;53.132;6.370;2023-02-05T09:01:07;29.65;;;4.85;;
51943;SDS011;37969;53.132;6.370;2023-02-05T09:03:34;43.42;;;7.18;;
51943;SDS011;37969;53.132;6.370;2023-02-05T09:06:03;41.78;;;6.05;;
51943;SDS011;37969;53.132;6.370;2023-02-05T09:08:29;27.77;;;4.45;;
51943;SDS011;37969;53.132;6.370;2023-02-05T09:10:55;33.95;;;5.65;;
51943;SDS011;37969;53.132;6.370;2023-02-05T09:13:22;37.90;;;5.43;;
51943;SDS011;37969;53.132;6.370;2023-02-05T09:15:49;47.90;;;6.40;;
51943;SDS011;37969;53.132;6.370;2023-02-05T09:18:15;43.15;;;5.60;;
51943;SDS011;37969;53.132;6.370;2023-02-05T09:20:42;40.03;;;7.00;;
51943;SDS011;37969;53.132;6.370;2023-02-05T09:23:10;43.72;;;5.82;;
51943;SDS011;37969;53.132;6.370;2023-02-05T09:25:37;47.05;;;6.65;;
51943;SDS011;37969;53.132;6.370;2023-02-05T09:28:04;43.42;;;6.10;;
51943;SDS011;37969;53.132;6.370;2023-02-05T09:30:34;41.60;;;6.43;;
51943;SDS011;37969;53.132;6.370;2023-02-05T09:33:00;35.92;;;5.53;;
51943;SDS011;37969;53.132;6.370;2023-02-05T09:35:26;38.70;;;7.38;;
51943;SDS011;37969;53.132;6.370;2023-02-05T09:37:52;37.65;;;5.38;;
51943;SDS011;37969;53.132;6.370;2023-02-05T09:40:20;29.42;;;3.92;;
51943;SDS011;37969;53.132;6.370;2023-02-05T09:43:04;23.27;;;3.63;;
51943;SDS011;37969;53.132;6.370;2023-02-05T09:45:35;20.08;;;3.95;;
51943;SDS011;37969;53.132;6.370;2023-02-05T09:48:09;20.85;;;4.75;;
51943;SDS011;37969;53.132;6.370;2023-02-05T09:50:39;15.40;;;2.58;;
51943;SDS011;37969;53.132;6.370;2023-02-05T09:53:08;30.92;;;6.13;;
51943;SDS011;37969;53.132;6.370;2023-02-05T09:55:37;37.33;;;7.57;;
51943;SDS011;37969;53.132;6.370;2023-02-05T09:58:06;36.72;;;5.93;;
51943;SDS011;37969;53.132;6.370;2023-02-05T10:00:38;35.38;;;5.45;;
51943;SDS011;37969;53.132;6.370;2023-02-05T10:03:24;39.92;;;8.73;;
51943;SDS011;37969;53.132;6.370;2023-02-05T10:06:03;56.13;;;15.30;;
51943;SDS011;37969;53.132;6.370;2023-02-05T10:11:02;52.92;;;8.90;;
51943;SDS011;37969;53.132;6.370;2023-02-05T10:13:33;69.10;;;11.63;;
51943;SDS011;37969;53.132;6.370;2023-02-05T10:16:06;62.35;;;13.95;;
51943;SDS011;37969;53.132;6.370;2023-02-05T10:21:22;68.15;;;11.75;;
51943;SDS011;37969;53.132;6.370;2023-02-05T10:26:38;26.00;;;4.82;;
51943;SDS011;37969;53.132;6.370;2023-02-05T10:29:10;20.77;;;4.20;;
51943;SDS011;37969;53.132;6.370;2023-02-05T10:31:43;24.08;;;4.47;;
51943;SDS011;37969;53.132;6.370;2023-02-05T10:34:16;29.40;;;4.25;;
51943;SDS011;37969;53.132;6.370;2023-02-05T10:36:43;28.02;;;4.00;;
51943;SDS011;37969;53.132;6.370;2023-02-05T10:39:12;25.73;;;4.53;;
51943;SDS011;37969;53.132;6.370;2023-02-05T10:41:57;26.38;;;4.00;;
51943;SDS011;37969;53.132;6.370;2023-02-05T10:44:26;28.20;;;4.18;;
51943;SDS011;37969;53.132;6.370;2023-02-05T10:46:56;25.83;;;3.75;;
51943;SDS011;37969;53.132;6.370;2023-02-05T10:49:28;25.83;;;4.65;;
51943;SDS011;37969;53.132;6.370;2023-02-05T10:51:57;27.17;;;4.60;;
51943;SDS011;37969;53.132;6.370;2023-02-05T10:54:31;19.13;;;4.57;;
51943;SDS011;37969;53.132;6.370;2023-02-05T10:56:58;23.52;;;4.40;;
51943;SDS011;37969;53.132;6.370;2023-02-05T10:59:27;37.17;;;7.05;;
51943;SDS011;37969;53.132;6.370;2023-02-05T11:01:55;36.75;;;6.25;;
51943;SDS011;37969;53.132;6.370;2023-02-05T11:04:27;36.10;;;6.05;;
51943;SDS011;37969;53.132;6.370;2023-02-05T11:06:58;34.63;;;5.13;;
51943;SDS011;37969;53.132;6.370;2023-02-05T11:09:31;34.75;;;6.00;;
51943;SDS011;37969;53.132;6.370;2023-02-05T11:16:54;46.00;;;8.57;;
51943;SDS011;37969;53.132;6.370;2023-02-05T11:19:21;58.28;;;8.27;;
51943;SDS011;37969;53.132;6.370;2023-02-05T11:21:56;46.17;;;7.05;;
51943;SDS011;37969;53.132;6.370;2023-02-05T11:24:24;46.58;;;7.03;;
51943;SDS011;37969;53.132;6.370;2023-02-05T11:29:36;51.88;;;6.55;;
51943;SDS011;37969;53.132;6.370;2023-02-05T11:32:03;58.55;;;7.72;;
51943;SDS011;37969;53.132;6.370;2023-02-05T11:34:29;50.97;;;6.72;;
51943;SDS011;37969;53.132;6.370;2023-02-05T11:36:55;45.97;;;7.05;;
51943;SDS011;37969;53.132;6.370;2023-02-05T11:41:50;45.95;;;7.50;;
51943;SDS011;37969;53.132;6.370;2023-02-05T11:44:19;53.35;;;7.30;;
51943;SDS011;37969;53.132;6.370;2023-02-05T11:46:46;39.10;;;6.40;;
51943;SDS011;37969;53.132;6.370;2023-02-05T11:49:20;47.88;;;6.93;;
51943;SDS011;37969;53.132;6.370;2023-02-05T11:51:47;43.78;;;7.13;;
51943;SDS011;37969;53.132;6.370;2023-02-05T11:56:41;53.88;;;6.35;;
51943;SDS011;37969;53.132;6.370;2023-02-05T11:59:17;36.47;;;5.53;;
51943;SDS011;37969;53.132;6.370;2023-02-05T12:01:44;44.47;;;5.78;;
51943;SDS011;37969;53.132;6.370;2023-02-05T12:06:37;34.47;;;6.72;;
51943;SDS011;37969;53.132;6.370;2023-02-05T12:09:09;42.20;;;6.28;;
51943;SDS011;37969;53.132;6.370;2023-02-05T12:11:43;31.98;;;6.25;;
51943;SDS011;37969;53.132;6.370;2023-02-05T12:17:03;44.13;;;6.63;;
51943;SDS011;37969;53.132;6.370;2023-02-05T12:19:37;34.33;;;6.28;;
51943;SDS011;37969;53.132;6.370;2023-02-05T12:22:15;46.60;;;7.38;;
51943;SDS011;37969;53.132;6.370;2023-02-05T12:25:05;38.97;;;6.47;;
51943;SDS011;37969;53.132;6.370;2023-02-05T12:27:38;39.22;;;6.00;;
51943;SDS011;37969;53.132;6.370;2023-02-05T12:30:14;43.50;;;7.18;;
51943;SDS011;37969;53.132;6.370;2023-02-05T12:35:21;43.40;;;6.60;;
51943;SDS011;37969;53.132;6.370;2023-02-05T12:37:56;41.22;;;6.85;;
51943;SDS011;37969;53.132;6.370;2023-02-05T12:40:29;48.67;;;6.85;;
51943;SDS011;37969;53.132;6.370;2023-02-05T12:43:09;41.80;;;6.57;;
51943;SDS011;37969;53.132;6.370;2023-02-05T12:48:13;47.90;;;7.00;;
51943;SDS011;37969;53.132;6.370;2023-02-05T12:50:47;36.90;;;6.13;;
51943;SDS011;37969;53.132;6.370;2023-02-05T12:58:12;38.97;;;6.60;;
51943;SDS011;37969;53.132;6.370;2023-02-05T13:00:40;41.80;;;7.18;;
51943;SDS011;37969;53.132;6.370;2023-02-05T13:05:40;44.08;;;7.63;;
51943;SDS011;37969;53.132;6.370;2023-02-05T13:08:15;42.97;;;6.88;;
51943;SDS011;37969;53.132;6.370;2023-02-05T13:13:13;47.42;;;7.38;;
51943;SDS011;37969;53.132;6.370;2023-02-05T13:18:16;46.65;;;6.68;;
51943;SDS011;37969;53.132;6.370;2023-02-05T13:20:45;44.47;;;7.18;;
51943;SDS011;37969;53.132;6.370;2023-02-05T13:23:32;43.00;;;6.70;;
51943;SDS011;37969;53.132;6.370;2023-02-05T13:26:17;48.65;;;7.28;;
51943;SDS011;37969;53.132;6.370;2023-02-05T13:28:51;34.80;;;5.43;;
51943;SDS011;37969;53.132;6.370;2023-02-05T13:31:20;41.33;;;6.03;;
51943;SDS011;37969;53.132;6.370;2023-02-05T13:33:47;43.50;;;7.15;;
51943;SDS011;37969;53.132;6.370;2023-02-05T13:38:58;49.53;;;6.63;;
51943;SDS011;37969;53.132;6.370;2023-02-05T13:46:55;45.08;;;6.68;;
51943;SDS011;37969;53.132;6.370;2023-02-05T13:51:59;43.20;;;7.50;;
51943;SDS011;37969;53.132;6.370;2023-02-05T13:57:01;36.13;;;5.85;;
51943;SDS011;37969;53.132;6.370;2023-02-05T13:59:36;45.97;;;8.52;;
51943;SDS011;37969;53.132;6.370;2023-02-05T14:02:22;51.25;;;8.55;;
51943;SDS011;37969;53.132;6.370;2023-02-05T14:04:49;42.08;;;8.65;;
51943;SDS011;37969;53.132;6.370;2023-02-05T14:07:26;48.90;;;10.20;;
51943;SDS011;37969;53.132;6.370;2023-02-05T14:09:54;42.67;;;8.50;;
51943;SDS011;37969;53.132;6.370;2023-02-05T14:20:00;39.88;;;7.78;;
51943;SDS011;37969;53.132;6.370;2023-02-05T14:22:34;51.20;;;7.93;;
51943;SDS011;37969;53.132;6.370;2023-02-05T14:25:01;50.25;;;9.23;;
51943;SDS011;37969;53.132;6.370;2023-02-05T14:29:53;47.25;;;8.88;;
51943;SDS011;37969;53.132;6.370;2023-02-05T14:35:04;58.85;;;8.95;;
51943;SDS011;37969;53.132;6.370;2023-02-05T14:37:32;45.20;;;8.18;;
51943;SDS011;37969;53.132;6.370;2023-02-05T14:40:09;58.90;;;8.75;;
51943;SDS011;37969;53.132;6.370;2023-02-05T14:42:36;47.53;;;8.20;;
51943;SDS011;37969;53.132;6.370;2023-02-05T14:45:02;48.30;;;8.25;;
51943;SDS011;37969;53.132;6.370;2023-02-05T14:47:29;39.42;;;7.57;;
51943;SDS011;37969;53.132;6.370;2023-02-05T14:50:03;55.13;;;8.15;;
51943;SDS011;37969;53.132;6.370;2023-02-05T14:54:59;51.72;;;7.82;;
51943;SDS011;37969;53.132;6.370;2023-02-05T15:00:02;58.28;;;10.00;;
51943;SDS011;37969;53.132;6.370;2023-02-05T15:05:18;57.33;;;9.25;;
51943;SDS011;37969;53.132;6.370;2023-02-05T15:07:46;60.22;;;9.32;;
51943;SDS011;37969;53.132;6.370;2023-02-05T15:10:17;65.03;;;10.50;;
51943;SDS011;37969;53.132;6.370;2023-02-05T15:15:25;54.20;;;8.10;;
51943;SDS011;37969;53.132;6.370;2023-02-05T15:17:53;49.67;;;8.40;;
51943;SDS011;37969;53.132;6.370;2023-02-05T15:20:24;68.03;;;8.63;;
51943;SDS011;37969;53.132;6.370;2023-02-05T15:22:56;58.03;;;9.02;;
51943;SDS011;37969;53.132;6.370;2023-02-05T15:25:28;66.50;;;9.07;;
51943;SDS011;37969;53.132;6.370;2023-02-05T15:27:57;55.37;;;8.70;;
51943;SDS011;37969;53.132;6.370;2023-02-05T15:30:25;78.83;;;8.77;;
51943;SDS011;37969;53.132;6.370;2023-02-05T15:33:00;55.13;;;9.15;;
51943;SDS011;37969;53.132;6.370;2023-02-05T15:35:27;55.03;;;8.88;;
51943;SDS011;37969;53.132;6.370;2023-02-05T15:37:54;57.00;;;8.65;;
51943;SDS011;37969;53.132;6.370;2023-02-05T15:40:29;65.80;;;9.38;;
51943;SDS011;37969;53.132;6.370;2023-02-05T15:42:58;58.13;;;8.93;;
51943;SDS011;37969;53.132;6.370;2023-02-05T15:45:25;60.55;;;9.25;;
51943;SDS011;37969;53.132;6.370;2023-02-05T15:50:24;60.08;;;8.45;;
51943;SDS011;37969;53.132;6.370;2023-02-05T15:52:50;61.20;;;9.75;;
51943;SDS011;37969;53.132;6.370;2023-02-05T15:55:17;57.35;;;8.88;;
51943;SDS011;37969;53.132;6.370;2023-02-05T15:57:44;51.22;;;7.55;;
51943;SDS011;37969;53.132;6.370;2023-02-05T16:00:16;65.97;;;9.05;;
51943;SDS011;37969;53.132;6.370;2023-02-05T16:02:51;54.60;;;8.98;;
51943;SDS011;37969;53.132;6.370;2023-02-05T16:05:19;58.53;;;8.20;;
51943;SDS011;37969;53.132;6.370;2023-02-05T16:07:47;56.07;;;8.57;;
51943;SDS011;37969;53.132;6.370;2023-02-05T16:10:20;51.28;;;9.20;;
51943;SDS011;37969;53.132;6.370;2023-02-05T16:13:04;58.53;;;8.98;;
51943;SDS011;37969;53.132;6.370;2023-02-05T16:15:35;50.95;;;10.75;;
51943;SDS011;37969;53.132;6.370;2023-02-05T16:18:05;58.70;;;10.27;;
51943;SDS011;37969;53.132;6.370;2023-02-05T16:20:34;49.63;;;10.35;;